This is the latest recevied weather packets stored in our database for station/object K7DC. If no packets are shown the sender has not sent any weather packets the latest 10 day(s).
| Time | Temp. | Humidity | Pressure | Rain* | Wind** | Luminosity | Snow |
|---|---|---|---|---|---|---|---|
| 1777762187 | 30.56° C | 19% | 1012.1 hPa | 0 mm | - | 212 W/m² | - |
| 1777761883 | 31.67° C | 18% | 1012.2 hPa | 0 mm | - | 262 W/m² | - |
| 1777761579 | 30.56° C | 19% | 1012.2 hPa | 0 mm | - | 381 W/m² | - |
| 1777761277 | 30.56° C | 19% | 1012.2 hPa | 0 mm | - | 450 W/m² | - |
| 1777760975 | 31.67° C | 19% | 1012.4 hPa | 0 mm | - | 228 W/m² | - |
| 1777760672 | 32.22° C | 18% | 1012.6 hPa | 0 mm | - | 225 W/m² | - |
| 1777760368 | 33.89° C | 17% | 1012.4 hPa | 0 mm | - | 614 W/m² | - |
| 1777760065 | 32.78° C | 17% | 1012.2 hPa | 0 mm | - | 627 W/m² | - |
| 1777759762 | 31.67° C | 18% | 1012.6 hPa | 0 mm | - | 656 W/m² | - |
| 1777759458 | 31.67° C | 19% | 1012.7 hPa | 0 mm | - | 616 W/m² | - |
| 1777759154 | 30.56° C | 19% | 1012.9 hPa | 0 mm | - | 617 W/m² | - |
| 1777758852 | 31.11° C | 20% | 1013 hPa | 0 mm | - | 656 W/m² | - |
| 1777758549 | 31.67° C | 19% | 1013 hPa | 0 mm | - | 692 W/m² | - |
| 1777758245 | 31.11° C | 20% | 1013.1 hPa | 0 mm | - | 719 W/m² | - |
| 1777757943 | 31.11° C | 19% | 1012.9 hPa | 0 mm | - | 681 W/m² | - |
| 1777757639 | 31.67° C | 19% | 1013.3 hPa | 0 mm | - | 686 W/m² | - |
| 1777757339 | 31.11° C | 19% | 1013.3 hPa | 0 mm | - | 790 W/m² | - |
| 1777757037 | 32.22° C | 19% | 1013.5 hPa | 0 mm | - | 773 W/m² | - |
| 1777756734 | 32.22° C | 18% | 1013.7 hPa | 0 mm | - | 854 W/m² | - |
| 1777756429 | 31.11° C | 19% | 1013.7 hPa | 0 mm | - | 862 W/m² | - |
| 1777756127 | 30° C | 21% | 1013.5 hPa | 0 mm | - | 871 W/m² | - |
| 1777755824 | 30° C | 21% | 1013.8 hPa | 0 mm | - | 238 W/m² | - |
| 1777755521 | 31.11° C | 20% | 1013.9 hPa | 0 mm | - | 218 W/m² | - |
| 1777755217 | 31.11° C | 20% | 1013.7 hPa | 0 mm | - | 907 W/m² | - |
| 1777754914 | 31.11° C | 20% | 1013.9 hPa | 0 mm | - | 401 W/m² | - |
* Rain latest hour (hover to see other rain measurements)
** Current wind speed in m/s (hover to see current wind gust speed)